sensor_id;sensor_type;location;lat;lon;timestamp;P1;durP1;ratioP1;P2;durP2;ratioP2
6997;SDS011;3539;47.982;12.238;2023-02-24T00:01:11;14.27;;;11.10;;
6997;SDS011;3539;47.982;12.238;2023-02-24T00:03:44;16.33;;;12.00;;
6997;SDS011;3539;47.982;12.238;2023-02-24T00:06:11;19.77;;;13.67;;
6997;SDS011;3539;47.982;12.238;2023-02-24T00:08:39;17.73;;;11.67;;
6997;SDS011;3539;47.982;12.238;2023-02-24T00:11:07;18.87;;;11.93;;
6997;SDS011;3539;47.982;12.238;2023-02-24T00:13:37;16.77;;;12.13;;
6997;SDS011;3539;47.982;12.238;2023-02-24T00:16:05;20.27;;;12.57;;
6997;SDS011;3539;47.982;12.238;2023-02-24T00:18:32;14.47;;;11.03;;
6997;SDS011;3539;47.982;12.238;2023-02-24T00:21:04;15.47;;;11.37;;
6997;SDS011;3539;47.982;12.238;2023-02-24T00:23:32;15.70;;;11.27;;
6997;SDS011;3539;47.982;12.238;2023-02-24T00:26:02;16.97;;;11.97;;
6997;SDS011;3539;47.982;12.238;2023-02-24T00:28:30;16.20;;;11.30;;
6997;SDS011;3539;47.982;12.238;2023-02-24T00:31:01;16.47;;;11.53;;
6997;SDS011;3539;47.982;12.238;2023-02-24T00:33:28;14.17;;;10.93;;
6997;SDS011;3539;47.982;12.238;2023-02-24T00:36:02;13.50;;;10.07;;
6997;SDS011;3539;47.982;12.238;2023-02-24T00:38:30;11.90;;;9.93;;
6997;SDS011;3539;47.982;12.238;2023-02-24T00:41:00;11.93;;;10.33;;
6997;SDS011;3539;47.982;12.238;2023-02-24T00:43:29;11.70;;;9.83;;
6997;SDS011;3539;47.982;12.238;2023-02-24T00:46:01;15.93;;;11.43;;
6997;SDS011;3539;47.982;12.238;2023-02-24T00:48:28;11.17;;;9.93;;
6997;SDS011;3539;47.982;12.238;2023-02-24T00:50:55;11.93;;;9.77;;
6997;SDS011;3539;47.982;12.238;2023-02-24T00:53:22;12.10;;;10.30;;
6997;SDS011;3539;47.982;12.238;2023-02-24T00:55:57;14.17;;;10.90;;
6997;SDS011;3539;47.982;12.238;2023-02-24T00:58:25;13.27;;;10.60;;
6997;SDS011;3539;47.982;12.238;2023-02-24T01:00:55;16.33;;;12.63;;
6997;SDS011;3539;47.982;12.238;2023-02-24T01:03:23;18.33;;;14.40;;
6997;SDS011;3539;47.982;12.238;2023-02-24T01:05:52;15.40;;;12.23;;
6997;SDS011;3539;47.982;12.238;2023-02-24T01:08:19;17.17;;;12.53;;
6997;SDS011;3539;47.982;12.238;2023-02-24T01:10:53;16.37;;;13.30;;
6997;SDS011;3539;47.982;12.238;2023-02-24T01:13:43;17.37;;;12.27;;
6997;SDS011;3539;47.982;12.238;2023-02-24T01:16:10;13.80;;;11.40;;
6997;SDS011;3539;47.982;12.238;2023-02-24T01:18:39;16.10;;;12.27;;
6997;SDS011;3539;47.982;12.238;2023-02-24T01:21:06;12.93;;;10.93;;
6997;SDS011;3539;47.982;12.238;2023-02-24T01:23:33;14.77;;;11.20;;
6997;SDS011;3539;47.982;12.238;2023-02-24T01:26:01;11.80;;;9.80;;
6997;SDS011;3539;47.982;12.238;2023-02-24T01:28:28;11.80;;;9.63;;
6997;SDS011;3539;47.982;12.238;2023-02-24T01:30:59;10.30;;;8.97;;
6997;SDS011;3539;47.982;12.238;2023-02-24T01:33:28;11.50;;;9.80;;
6997;SDS011;3539;47.982;12.238;2023-02-24T01:36:06;11.37;;;9.07;;
6997;SDS011;3539;47.982;12.238;2023-02-24T01:38:34;12.07;;;9.87;;
6997;SDS011;3539;47.982;12.238;2023-02-24T01:41:03;10.40;;;9.03;;
6997;SDS011;3539;47.982;12.238;2023-02-24T01:43:30;10.10;;;8.90;;
6997;SDS011;3539;47.982;12.238;2023-02-24T01:45:57;9.33;;;7.93;;
6997;SDS011;3539;47.982;12.238;2023-02-24T01:48:24;9.07;;;8.13;;
6997;SDS011;3539;47.982;12.238;2023-02-24T01:50:53;10.45;;;8.48;;
6997;SDS011;3539;47.982;12.238;2023-02-24T01:53:19;11.07;;;8.23;;
6997;SDS011;3539;47.982;12.238;2023-02-24T01:55:47;10.23;;;8.17;;
6997;SDS011;3539;47.982;12.238;2023-02-24T01:58:18;9.77;;;8.50;;
6997;SDS011;3539;47.982;12.238;2023-02-24T02:00:49;11.33;;;9.63;;
6997;SDS011;3539;47.982;12.238;2023-02-24T02:03:18;11.80;;;9.70;;
6997;SDS011;3539;47.982;12.238;2023-02-24T02:05:50;9.30;;;8.03;;
6997;SDS011;3539;47.982;12.238;2023-02-24T02:08:20;11.47;;;9.30;;
6997;SDS011;3539;47.982;12.238;2023-02-24T02:10:48;11.57;;;9.10;;
6997;SDS011;3539;47.982;12.238;2023-02-24T02:13:22;12.43;;;8.77;;
6997;SDS011;3539;47.982;12.238;2023-02-24T02:15:51;10.33;;;8.83;;
6997;SDS011;3539;47.982;12.238;2023-02-24T02:18:25;13.70;;;9.97;;
6997;SDS011;3539;47.982;12.238;2023-02-24T02:21:08;12.93;;;9.90;;
6997;SDS011;3539;47.982;12.238;2023-02-24T02:23:53;12.23;;;9.30;;
6997;SDS011;3539;47.982;12.238;2023-02-24T02:26:39;12.27;;;9.33;;
6997;SDS011;3539;47.982;12.238;2023-02-24T02:29:34;14.13;;;10.47;;
6997;SDS011;3539;47.982;12.238;2023-02-24T02:32:38;14.57;;;11.13;;
6997;SDS011;3539;47.982;12.238;2023-02-24T02:35:18;14.00;;;10.70;;
6997;SDS011;3539;47.982;12.238;2023-02-24T02:37:49;15.43;;;10.83;;
6997;SDS011;3539;47.982;12.238;2023-02-24T02:40:22;12.80;;;10.23;;
6997;SDS011;3539;47.982;12.238;2023-02-24T02:42:53;12.67;;;10.40;;
6997;SDS011;3539;47.982;12.238;2023-02-24T02:45:23;15.40;;;10.70;;
6997;SDS011;3539;47.982;12.238;2023-02-24T02:47:56;14.33;;;9.77;;
6997;SDS011;3539;47.982;12.238;2023-02-24T02:50:28;13.80;;;10.60;;
6997;SDS011;3539;47.982;12.238;2023-02-24T02:53:01;13.67;;;10.17;;
6997;SDS011;3539;47.982;12.238;2023-02-24T02:55:31;13.43;;;9.87;;
6997;SDS011;3539;47.982;12.238;2023-02-24T02:58:01;14.33;;;9.53;;
6997;SDS011;3539;47.982;12.238;2023-02-24T03:00:30;14.20;;;10.77;;
6997;SDS011;3539;47.982;12.238;2023-02-24T03:03:00;15.10;;;11.00;;
6997;SDS011;3539;47.982;12.238;2023-02-24T03:05:33;14.77;;;11.10;;
6997;SDS011;3539;47.982;12.238;2023-02-24T03:08:03;13.03;;;9.77;;
6997;SDS011;3539;47.982;12.238;2023-02-24T03:10:35;15.20;;;10.47;;
6997;SDS011;3539;47.982;12.238;2023-02-24T03:13:02;13.57;;;10.20;;
6997;SDS011;3539;47.982;12.238;2023-02-24T03:15:31;13.27;;;10.47;;
6997;SDS011;3539;47.982;12.238;2023-02-24T03:18:00;14.50;;;11.20;;
6997;SDS011;3539;47.982;12.238;2023-02-24T03:20:35;17.63;;;10.13;;
6997;SDS011;3539;47.982;12.238;2023-02-24T03:23:06;12.40;;;9.97;;
6997;SDS011;3539;47.982;12.238;2023-02-24T03:25:41;13.47;;;10.33;;
6997;SDS011;3539;47.982;12.238;2023-02-24T03:28:12;15.97;;;10.37;;
6997;SDS011;3539;47.982;12.238;2023-02-24T03:30:42;12.40;;;9.60;;
6997;SDS011;3539;47.982;12.238;2023-02-24T03:33:14;11.97;;;9.87;;
6997;SDS011;3539;47.982;12.238;2023-02-24T03:35:45;13.07;;;9.53;;
6997;SDS011;3539;47.982;12.238;2023-02-24T03:38:15;14.23;;;10.33;;
6997;SDS011;3539;47.982;12.238;2023-02-24T03:40:42;11.30;;;9.20;;
6997;SDS011;3539;47.982;12.238;2023-02-24T03:43:12;12.40;;;8.97;;
6997;SDS011;3539;47.982;12.238;2023-02-24T03:45:42;12.83;;;9.63;;
6997;SDS011;3539;47.982;12.238;2023-02-24T03:48:10;13.07;;;9.23;;
6997;SDS011;3539;47.982;12.238;2023-02-24T03:50:37;15.53;;;11.10;;
6997;SDS011;3539;47.982;12.238;2023-02-24T03:53:10;12.93;;;10.10;;
6997;SDS011;3539;47.982;12.238;2023-02-24T03:55:44;14.70;;;10.87;;
6997;SDS011;3539;47.982;12.238;2023-02-24T03:58:26;13.67;;;10.00;;
6997;SDS011;3539;47.982;12.238;2023-02-24T04:00:57;15.63;;;11.00;;
6997;SDS011;3539;47.982;12.238;2023-02-24T04:03:31;14.83;;;10.77;;
6997;SDS011;3539;47.982;12.238;2023-02-24T04:06:03;17.03;;;11.60;;
6997;SDS011;3539;47.982;12.238;2023-02-24T04:08:36;12.18;;;10.10;;
6997;SDS011;3539;47.982;12.238;2023-02-24T04:11:08;11.90;;;9.30;;
6997;SDS011;3539;47.982;12.238;2023-02-24T04:13:39;14.37;;;10.07;;
6997;SDS011;3539;47.982;12.238;2023-02-24T04:16:09;11.37;;;8.70;;
6997;SDS011;3539;47.982;12.238;2023-02-24T04:18:41;11.40;;;9.30;;
6997;SDS011;3539;47.982;12.238;2023-02-24T04:21:13;11.67;;;8.87;;
6997;SDS011;3539;47.982;12.238;2023-02-24T04:23:42;13.20;;;9.80;;
6997;SDS011;3539;47.982;12.238;2023-02-24T04:26:10;14.07;;;10.57;;
6997;SDS011;3539;47.982;12.238;2023-02-24T04:28:38;14.63;;;10.97;;
6997;SDS011;3539;47.982;12.238;2023-02-24T04:31:07;12.73;;;9.80;;
6997;SDS011;3539;47.982;12.238;2023-02-24T04:33:35;15.20;;;11.53;;
6997;SDS011;3539;47.982;12.238;2023-02-24T04:36:03;15.90;;;11.03;;
6997;SDS011;3539;47.982;12.238;2023-02-24T04:38:33;17.17;;;11.13;;
6997;SDS011;3539;47.982;12.238;2023-02-24T04:41:01;20.53;;;11.53;;
6997;SDS011;3539;47.982;12.238;2023-02-24T04:43:28;13.43;;;10.63;;
6997;SDS011;3539;47.982;12.238;2023-02-24T04:45:54;14.60;;;10.73;;
6997;SDS011;3539;47.982;12.238;2023-02-24T04:48:21;16.50;;;11.50;;
6997;SDS011;3539;47.982;12.238;2023-02-24T04:50:48;15.47;;;10.27;;
6997;SDS011;3539;47.982;12.238;2023-02-24T04:53:19;15.53;;;10.90;;
6997;SDS011;3539;47.982;12.238;2023-02-24T04:55:51;16.63;;;11.30;;
6997;SDS011;3539;47.982;12.238;2023-02-24T04:58:20;13.13;;;10.10;;
6997;SDS011;3539;47.982;12.238;2023-02-24T05:00:48;12.83;;;9.43;;
6997;SDS011;3539;47.982;12.238;2023-02-24T05:03:17;13.33;;;9.73;;
6997;SDS011;3539;47.982;12.238;2023-02-24T05:05:47;14.33;;;10.33;;
6997;SDS011;3539;47.982;12.238;2023-02-24T05:08:16;10.50;;;8.87;;
6997;SDS011;3539;47.982;12.238;2023-02-24T05:10:44;12.77;;;10.00;;
6997;SDS011;3539;47.982;12.238;2023-02-24T05:13:11;15.23;;;10.60;;
6997;SDS011;3539;47.982;12.238;2023-02-24T05:15:41;14.53;;;10.50;;
6997;SDS011;3539;47.982;12.238;2023-02-24T05:18:11;15.03;;;10.40;;
6997;SDS011;3539;47.982;12.238;2023-02-24T05:20:41;16.57;;;10.40;;
6997;SDS011;3539;47.982;12.238;2023-02-24T05:23:26;14.90;;;11.07;;
6997;SDS011;3539;47.982;12.238;2023-02-24T05:25:55;13.35;;;9.73;;
6997;SDS011;3539;47.982;12.238;2023-02-24T05:28:22;12.60;;;10.20;;
6997;SDS011;3539;47.982;12.238;2023-02-24T05:30:51;12.07;;;10.17;;
6997;SDS011;3539;47.982;12.238;2023-02-24T05:33:18;10.90;;;9.23;;
6997;SDS011;3539;47.982;12.238;2023-02-24T05:35:46;12.83;;;9.47;;
6997;SDS011;3539;47.982;12.238;2023-02-24T05:38:15;12.63;;;9.50;;
6997;SDS011;3539;47.982;12.238;2023-02-24T05:40:44;13.17;;;9.27;;
6997;SDS011;3539;47.982;12.238;2023-02-24T05:43:12;12.90;;;9.07;;
6997;SDS011;3539;47.982;12.238;2023-02-24T05:45:42;13.17;;;9.53;;
6997;SDS011;3539;47.982;12.238;2023-02-24T05:48:10;13.07;;;10.40;;
6997;SDS011;3539;47.982;12.238;2023-02-24T05:50:39;13.20;;;11.03;;
6997;SDS011;3539;47.982;12.238;2023-02-24T05:53:05;13.50;;;10.97;;
6997;SDS011;3539;47.982;12.238;2023-02-24T05:55:33;12.57;;;10.57;;
6997;SDS011;3539;47.982;12.238;2023-02-24T05:58:01;14.93;;;11.33;;
6997;SDS011;3539;47.982;12.238;2023-02-24T06:00:30;13.23;;;10.83;;
6997;SDS011;3539;47.982;12.238;2023-02-24T06:02:57;19.33;;;12.43;;
6997;SDS011;3539;47.982;12.238;2023-02-24T06:05:33;17.07;;;12.90;;
6997;SDS011;3539;47.982;12.238;2023-02-24T06:08:03;14.60;;;10.97;;
6997;SDS011;3539;47.982;12.238;2023-02-24T06:10:31;15.37;;;12.40;;
6997;SDS011;3539;47.982;12.238;2023-02-24T06:12:59;14.20;;;11.03;;
6997;SDS011;3539;47.982;12.238;2023-02-24T06:15:26;14.40;;;11.27;;
6997;SDS011;3539;47.982;12.238;2023-02-24T06:17:53;14.17;;;11.30;;
6997;SDS011;3539;47.982;12.238;2023-02-24T06:20:20;15.23;;;10.57;;
6997;SDS011;3539;47.982;12.238;2023-02-24T06:22:49;11.67;;;10.07;;
6997;SDS011;3539;47.982;12.238;2023-02-24T06:25:18;11.77;;;9.53;;
6997;SDS011;3539;47.982;12.238;2023-02-24T06:27:49;16.70;;;9.70;;
6997;SDS011;3539;47.982;12.238;2023-02-24T06:30:19;11.23;;;9.20;;
6997;SDS011;3539;47.982;12.238;2023-02-24T06:32:46;11.83;;;9.80;;
6997;SDS011;3539;47.982;12.238;2023-02-24T06:35:13;11.63;;;9.00;;
6997;SDS011;3539;47.982;12.238;2023-02-24T06:37:40;12.20;;;9.70;;
6997;SDS011;3539;47.982;12.238;2023-02-24T06:40:09;12.10;;;10.80;;
6997;SDS011;3539;47.982;12.238;2023-02-24T06:42:42;13.20;;;11.43;;
6997;SDS011;3539;47.982;12.238;2023-02-24T06:45:10;20.67;;;14.93;;
6997;SDS011;3539;47.982;12.238;2023-02-24T06:47:37;21.70;;;15.47;;
6997;SDS011;3539;47.982;12.238;2023-02-24T06:50:04;19.03;;;14.50;;
6997;SDS011;3539;47.982;12.238;2023-02-24T06:52:32;20.93;;;15.97;;
6997;SDS011;3539;47.982;12.238;2023-02-24T06:54:58;19.37;;;15.30;;
6997;SDS011;3539;47.982;12.238;2023-02-24T06:57:30;20.57;;;14.73;;
6997;SDS011;3539;47.982;12.238;2023-02-24T06:59:58;18.43;;;12.63;;
6997;SDS011;3539;47.982;12.238;2023-02-24T07:02:25;14.00;;;11.10;;
6997;SDS011;3539;47.982;12.238;2023-02-24T07:05:03;14.53;;;10.70;;
6997;SDS011;3539;47.982;12.238;2023-02-24T07:07:31;11.38;;;9.40;;
6997;SDS011;3539;47.982;12.238;2023-02-24T07:09:58;11.13;;;9.23;;
6997;SDS011;3539;47.982;12.238;2023-02-24T07:12:24;16.17;;;11.03;;
6997;SDS011;3539;47.982;12.238;2023-02-24T07:14:53;14.20;;;9.93;;
6997;SDS011;3539;47.982;12.238;2023-02-24T07:17:19;11.30;;;9.50;;
6997;SDS011;3539;47.982;12.238;2023-02-24T07:19:47;12.93;;;10.53;;
6997;SDS011;3539;47.982;12.238;2023-02-24T07:22:14;16.37;;;11.03;;
6997;SDS011;3539;47.982;12.238;2023-02-24T07:24:41;13.97;;;11.03;;
6997;SDS011;3539;47.982;12.238;2023-02-24T07:27:11;15.43;;;10.63;;
6997;SDS011;3539;47.982;12.238;2023-02-24T07:29:45;13.23;;;10.90;;
6997;SDS011;3539;47.982;12.238;2023-02-24T07:32:15;13.10;;;10.13;;
6997;SDS011;3539;47.982;12.238;2023-02-24T07:34:42;13.77;;;10.10;;
6997;SDS011;3539;47.982;12.238;2023-02-24T07:37:09;13.87;;;10.80;;
6997;SDS011;3539;47.982;12.238;2023-02-24T07:39:36;13.17;;;11.20;;
6997;SDS011;3539;47.982;12.238;2023-02-24T07:42:03;14.77;;;12.13;;
6997;SDS011;3539;47.982;12.238;2023-02-24T07:44:31;13.20;;;10.27;;
6997;SDS011;3539;47.982;12.238;2023-02-24T07:46:58;11.73;;;10.23;;
6997;SDS011;3539;47.982;12.238;2023-02-24T07:49:26;12.23;;;9.83;;
6997;SDS011;3539;47.982;12.238;2023-02-24T07:51:54;14.37;;;10.47;;
6997;SDS011;3539;47.982;12.238;2023-02-24T07:54:22;12.70;;;10.90;;
6997;SDS011;3539;47.982;12.238;2023-02-24T07:56:51;11.87;;;9.87;;
6997;SDS011;3539;47.982;12.238;2023-02-24T07:59:22;13.03;;;10.47;;
6997;SDS011;3539;47.982;12.238;2023-02-24T08:01:49;12.70;;;10.90;;
6997;SDS011;3539;47.982;12.238;2023-02-24T08:04:20;12.50;;;9.90;;
6997;SDS011;3539;47.982;12.238;2023-02-24T08:06:51;15.73;;;10.73;;
6997;SDS011;3539;47.982;12.238;2023-02-24T08:09:21;16.20;;;11.57;;
6997;SDS011;3539;47.982;12.238;2023-02-24T08:12:11;14.53;;;11.53;;
6997;SDS011;3539;47.982;12.238;2023-02-24T08:14:42;13.00;;;10.63;;
6997;SDS011;3539;47.982;12.238;2023-02-24T08:17:14;15.50;;;10.70;;
6997;SDS011;3539;47.982;12.238;2023-02-24T08:19:44;11.37;;;10.13;;
6997;SDS011;3539;47.982;12.238;2023-02-24T08:22:13;13.17;;;9.93;;
6997;SDS011;3539;47.982;12.238;2023-02-24T08:24:50;11.33;;;10.13;;
6997;SDS011;3539;47.982;12.238;2023-02-24T08:27:17;12.37;;;10.40;;
6997;SDS011;3539;47.982;12.238;2023-02-24T08:29:46;14.53;;;9.43;;
6997;SDS011;3539;47.982;12.238;2023-02-24T08:32:23;12.50;;;10.67;;
6997;SDS011;3539;47.982;12.238;2023-02-24T08:34:50;14.73;;;10.97;;
6997;SDS011;3539;47.982;12.238;2023-02-24T08:37:22;14.17;;;10.50;;
6997;SDS011;3539;47.982;12.238;2023-02-24T08:39:50;15.63;;;10.40;;
6997;SDS011;3539;47.982;12.238;2023-02-24T08:42:20;12.90;;;10.00;;
6997;SDS011;3539;47.982;12.238;2023-02-24T08:44:55;10.37;;;7.80;;
6997;SDS011;3539;47.982;12.238;2023-02-24T08:47:22;9.70;;;7.50;;
6997;SDS011;3539;47.982;12.238;2023-02-24T08:49:55;9.83;;;6.87;;
6997;SDS011;3539;47.982;12.238;2023-02-24T08:52:25;10.47;;;6.90;;
6997;SDS011;3539;47.982;12.238;2023-02-24T08:54:52;8.30;;;6.67;;
6997;SDS011;3539;47.982;12.238;2023-02-24T08:57:23;9.03;;;7.43;;
6997;SDS011;3539;47.982;12.238;2023-02-24T08:59:50;9.70;;;7.23;;
6997;SDS011;3539;47.982;12.238;2023-02-24T09:02:22;10.60;;;7.23;;
6997;SDS011;3539;47.982;12.238;2023-02-24T09:04:52;10.27;;;8.27;;
6997;SDS011;3539;47.982;12.238;2023-02-24T09:07:20;9.07;;;7.13;;
6997;SDS011;3539;47.982;12.238;2023-02-24T09:09:49;10.03;;;7.50;;
6997;SDS011;3539;47.982;12.238;2023-02-24T09:12:20;9.37;;;6.90;;
6997;SDS011;3539;47.982;12.238;2023-02-24T09:14:49;9.27;;;7.10;;
6997;SDS011;3539;47.982;12.238;2023-02-24T09:17:20;9.00;;;6.83;;
6997;SDS011;3539;47.982;12.238;2023-02-24T09:20:04;10.75;;;7.32;;
6997;SDS011;3539;47.982;12.238;2023-02-24T09:23:10;11.53;;;7.27;;
6997;SDS011;3539;47.982;12.238;2023-02-24T09:25:45;15.07;;;7.73;;
6997;SDS011;3539;47.982;12.238;2023-02-24T09:28:15;10.73;;;7.90;;
6997;SDS011;3539;47.982;12.238;2023-02-24T09:30:43;11.13;;;7.40;;
6997;SDS011;3539;47.982;12.238;2023-02-24T09:33:19;9.77;;;7.67;;
6997;SDS011;3539;47.982;12.238;2023-02-24T09:35:49;9.40;;;6.77;;
6997;SDS011;3539;47.982;12.238;2023-02-24T09:38:27;11.17;;;8.07;;
6997;SDS011;3539;47.982;12.238;2023-02-24T09:41:25;10.20;;;7.60;;
6997;SDS011;3539;47.982;12.238;2023-02-24T09:44:02;9.63;;;7.40;;
6997;SDS011;3539;47.982;12.238;2023-02-24T09:46:33;10.90;;;7.80;;
6997;SDS011;3539;47.982;12.238;2023-02-24T09:49:06;11.07;;;7.77;;
6997;SDS011;3539;47.982;12.238;2023-02-24T09:51:39;8.17;;;7.23;;
6997;SDS011;3539;47.982;12.238;2023-02-24T09:54:10;11.17;;;7.50;;
6997;SDS011;3539;47.982;12.238;2023-02-24T09:56:42;9.43;;;7.37;;
6997;SDS011;3539;47.982;12.238;2023-02-24T09:59:17;9.10;;;7.27;;
6997;SDS011;3539;47.982;12.238;2023-02-24T10:01:51;10.37;;;7.57;;
6997;SDS011;3539;47.982;12.238;2023-02-24T10:04:32;11.23;;;7.43;;
6997;SDS011;3539;47.982;12.238;2023-02-24T10:07:05;11.13;;;7.80;;
6997;SDS011;3539;47.982;12.238;2023-02-24T10:09:36;10.10;;;7.80;;
6997;SDS011;3539;47.982;12.238;2023-02-24T10:12:08;13.33;;;7.97;;
6997;SDS011;3539;47.982;12.238;2023-02-24T10:14:43;8.63;;;7.57;;
6997;SDS011;3539;47.982;12.238;2023-02-24T10:17:13;9.37;;;7.50;;
6997;SDS011;3539;47.982;12.238;2023-02-24T10:19:55;10.90;;;7.97;;
6997;SDS011;3539;47.982;12.238;2023-02-24T10:22:37;10.60;;;8.20;;
6997;SDS011;3539;47.982;12.238;2023-02-24T10:25:29;13.70;;;9.73;;
6997;SDS011;3539;47.982;12.238;2023-02-24T10:28:06;13.40;;;9.70;;
6997;SDS011;3539;47.982;12.238;2023-02-24T10:30:45;13.30;;;8.27;;
6997;SDS011;3539;47.982;12.238;2023-02-24T10:33:26;10.03;;;8.07;;
6997;SDS011;3539;47.982;12.238;2023-02-24T10:36:05;10.63;;;8.00;;
6997;SDS011;3539;47.982;12.238;2023-02-24T10:38:34;11.23;;;8.00;;
6997;SDS011;3539;47.982;12.238;2023-02-24T10:41:02;9.97;;;7.87;;
6997;SDS011;3539;47.982;12.238;2023-02-24T10:43:32;12.60;;;8.27;;
6997;SDS011;3539;47.982;12.238;2023-02-24T10:46:17;10.97;;;7.77;;
6997;SDS011;3539;47.982;12.238;2023-02-24T10:48:50;10.10;;;7.77;;
6997;SDS011;3539;47.982;12.238;2023-02-24T10:51:24;10.70;;;7.67;;
6997;SDS011;3539;47.982;12.238;2023-02-24T10:54:02;13.40;;;7.97;;
6997;SDS011;3539;47.982;12.238;2023-02-24T10:56:46;11.90;;;8.27;;
6997;SDS011;3539;47.982;12.238;2023-02-24T10:59:21;13.33;;;8.03;;
6997;SDS011;3539;47.982;12.238;2023-02-24T11:02:17;11.30;;;7.93;;
6997;SDS011;3539;47.982;12.238;2023-02-24T11:04:57;14.03;;;8.00;;
6997;SDS011;3539;47.982;12.238;2023-02-24T11:08:02;11.80;;;7.53;;
6997;SDS011;3539;47.982;12.238;2023-02-24T11:10:37;13.87;;;7.83;;
6997;SDS011;3539;47.982;12.238;2023-02-24T11:13:17;9.17;;;7.50;;
6997;SDS011;3539;47.982;12.238;2023-02-24T11:16:06;10.03;;;7.63;;
6997;SDS011;3539;47.982;12.238;2023-02-24T11:18:51;11.20;;;7.80;;
6997;SDS011;3539;47.982;12.238;2023-02-24T11:21:21;10.43;;;7.30;;
6997;SDS011;3539;47.982;12.238;2023-02-24T11:23:49;11.63;;;7.60;;
6997;SDS011;3539;47.982;12.238;2023-02-24T11:26:19;11.37;;;7.47;;
6997;SDS011;3539;47.982;12.238;2023-02-24T11:31:50;10.23;;;7.57;;
6997;SDS011;3539;47.982;12.238;2023-02-24T11:34:25;11.63;;;7.90;;
6997;SDS011;3539;47.982;12.238;2023-02-24T11:36:58;12.90;;;6.87;;
6997;SDS011;3539;47.982;12.238;2023-02-24T11:39:36;17.07;;;13.20;;
6997;SDS011;3539;47.982;12.238;2023-02-24T11:42:11;9.50;;;7.07;;
6997;SDS011;3539;47.982;12.238;2023-02-24T11:44:42;10.53;;;7.10;;
6997;SDS011;3539;47.982;12.238;2023-02-24T11:47:15;9.70;;;6.70;;
6997;SDS011;3539;47.982;12.238;2023-02-24T11:49:44;11.80;;;7.30;;
6997;SDS011;3539;47.982;12.238;2023-02-24T11:52:15;10.87;;;7.03;;
6997;SDS011;3539;47.982;12.238;2023-02-24T11:54:43;13.10;;;7.10;;
6997;SDS011;3539;47.982;12.238;2023-02-24T11:57:14;11.27;;;7.10;;
6997;SDS011;3539;47.982;12.238;2023-02-24T11:59:42;11.17;;;7.00;;
6997;SDS011;3539;47.982;12.238;2023-02-24T12:02:14;11.00;;;7.50;;
6997;SDS011;3539;47.982;12.238;2023-02-24T12:04:48;8.73;;;6.73;;
6997;SDS011;3539;47.982;12.238;2023-02-24T12:07:19;10.33;;;7.23;;
6997;SDS011;3539;47.982;12.238;2023-02-24T12:09:48;10.80;;;6.70;;
6997;SDS011;3539;47.982;12.238;2023-02-24T12:12:19;11.13;;;6.83;;
6997;SDS011;3539;47.982;12.238;2023-02-24T12:14:49;16.47;;;7.30;;
6997;SDS011;3539;47.982;12.238;2023-02-24T12:17:20;9.40;;;6.73;;
6997;SDS011;3539;47.982;12.238;2023-02-24T12:19:54;9.97;;;6.90;;
6997;SDS011;3539;47.982;12.238;2023-02-24T12:22:25;11.47;;;6.90;;
6997;SDS011;3539;47.982;12.238;2023-02-24T12:24:56;9.40;;;6.80;;
6997;SDS011;3539;47.982;12.238;2023-02-24T12:27:25;9.40;;;6.60;;
6997;SDS011;3539;47.982;12.238;2023-02-24T12:30:20;9.07;;;7.17;;
6997;SDS011;3539;47.982;12.238;2023-02-24T12:33:02;9.00;;;6.73;;
6997;SDS011;3539;47.982;12.238;2023-02-24T12:35:40;10.37;;;6.83;;
6997;SDS011;3539;47.982;12.238;2023-02-24T12:38:15;15.30;;;9.83;;
6997;SDS011;3539;47.982;12.238;2023-02-24T12:40:48;10.80;;;7.07;;
6997;SDS011;3539;47.982;12.238;2023-02-24T12:43:21;11.50;;;8.67;;
6997;SDS011;3539;47.982;12.238;2023-02-24T12:45:54;9.00;;;6.60;;
6997;SDS011;3539;47.982;12.238;2023-02-24T12:48:35;12.10;;;7.60;;
6997;SDS011;3539;47.982;12.238;2023-02-24T12:51:15;9.93;;;7.23;;
6997;SDS011;3539;47.982;12.238;2023-02-24T12:53:47;9.43;;;7.03;;
6997;SDS011;3539;47.982;12.238;2023-02-24T12:56:19;14.25;;;8.45;;
6997;SDS011;3539;47.982;12.238;2023-02-24T12:58:50;9.93;;;7.00;;
6997;SDS011;3539;47.982;12.238;2023-02-24T13:01:20;15.03;;;7.93;;
6997;SDS011;3539;47.982;12.238;2023-02-24T13:03:55;13.50;;;8.90;;
6997;SDS011;3539;47.982;12.238;2023-02-24T13:06:28;12.20;;;7.30;;
6997;SDS011;3539;47.982;12.238;2023-02-24T13:09:04;16.70;;;9.83;;
6997;SDS011;3539;47.982;12.238;2023-02-24T13:11:37;13.23;;;7.40;;
6997;SDS011;3539;47.982;12.238;2023-02-24T13:14:10;17.33;;;11.63;;
6997;SDS011;3539;47.982;12.238;2023-02-24T13:16:40;10.87;;;7.23;;
6997;SDS011;3539;47.982;12.238;2023-02-24T13:19:17;12.53;;;7.23;;
6997;SDS011;3539;47.982;12.238;2023-02-24T13:21:55;8.97;;;6.33;;
6997;SDS011;3539;47.982;12.238;2023-02-24T13:24:28;10.97;;;7.07;;
6997;SDS011;3539;47.982;12.238;2023-02-24T13:27:03;11.77;;;7.27;;
6997;SDS011;3539;47.982;12.238;2023-02-24T13:29:40;12.80;;;7.33;;
6997;SDS011;3539;47.982;12.238;2023-02-24T13:32:19;11.03;;;7.40;;
6997;SDS011;3539;47.982;12.238;2023-02-24T13:34:50;10.50;;;7.83;;
6997;SDS011;3539;47.982;12.238;2023-02-24T13:37:25;11.50;;;7.40;;
6997;SDS011;3539;47.982;12.238;2023-02-24T13:39:53;21.77;;;7.57;;
6997;SDS011;3539;47.982;12.238;2023-02-24T13:42:22;11.67;;;7.20;;
6997;SDS011;3539;47.982;12.238;2023-02-24T13:44:51;11.37;;;7.27;;
6997;SDS011;3539;47.982;12.238;2023-02-24T13:47:24;16.43;;;7.47;;
6997;SDS011;3539;47.982;12.238;2023-02-24T13:50:13;11.30;;;7.40;;
6997;SDS011;3539;47.982;12.238;2023-02-24T13:52:47;9.13;;;6.30;;
6997;SDS011;3539;47.982;12.238;2023-02-24T13:55:23;8.17;;;6.43;;
6997;SDS011;3539;47.982;12.238;2023-02-24T13:58:00;9.73;;;6.23;;
6997;SDS011;3539;47.982;12.238;2023-02-24T14:03:45;9.93;;;6.93;;
6997;SDS011;3539;47.982;12.238;2023-02-24T14:06:27;8.70;;;6.47;;
6997;SDS011;3539;47.982;12.238;2023-02-24T14:08:55;10.40;;;7.20;;
6997;SDS011;3539;47.982;12.238;2023-02-24T14:11:25;9.10;;;6.43;;
6997;SDS011;3539;47.982;12.238;2023-02-24T14:13:54;8.23;;;6.60;;
6997;SDS011;3539;47.982;12.238;2023-02-24T14:16:23;9.93;;;6.70;;
6997;SDS011;3539;47.982;12.238;2023-02-24T14:18:51;9.07;;;5.90;;
6997;SDS011;3539;47.982;12.238;2023-02-24T14:21:20;10.63;;;6.27;;
6997;SDS011;3539;47.982;12.238;2023-02-24T14:23:55;16.67;;;6.33;;
6997;SDS011;3539;47.982;12.238;2023-02-24T14:26:23;9.37;;;6.20;;
6997;SDS011;3539;47.982;12.238;2023-02-24T14:28:52;9.87;;;6.47;;
6997;SDS011;3539;47.982;12.238;2023-02-24T14:31:21;22.00;;;10.63;;
6997;SDS011;3539;47.982;12.238;2023-02-24T14:33:52;14.40;;;9.43;;
6997;SDS011;3539;47.982;12.238;2023-02-24T14:36:22;12.50;;;8.47;;
6997;SDS011;3539;47.982;12.238;2023-02-24T14:39:00;13.67;;;8.00;;
6997;SDS011;3539;47.982;12.238;2023-02-24T14:41:30;11.17;;;8.00;;
6997;SDS011;3539;47.982;12.238;2023-02-24T14:44:03;13.00;;;7.93;;
6997;SDS011;3539;47.982;12.238;2023-02-24T14:46:31;11.83;;;7.87;;
6997;SDS011;3539;47.982;12.238;2023-02-24T14:48:58;13.80;;;7.87;;
6997;SDS011;3539;47.982;12.238;2023-02-24T14:51:26;9.97;;;7.23;;
6997;SDS011;3539;47.982;12.238;2023-02-24T14:53:55;8.73;;;7.10;;
6997;SDS011;3539;47.982;12.238;2023-02-24T14:56:29;12.10;;;9.67;;
6997;SDS011;3539;47.982;12.238;2023-02-24T14:58:58;13.40;;;8.13;;
6997;SDS011;3539;47.982;12.238;2023-02-24T15:01:29;10.70;;;7.23;;
6997;SDS011;3539;47.982;12.238;2023-02-24T15:03:59;11.73;;;7.03;;
6997;SDS011;3539;47.982;12.238;2023-02-24T15:06:34;14.63;;;7.27;;
6997;SDS011;3539;47.982;12.238;2023-02-24T15:09:09;12.23;;;7.13;;
6997;SDS011;3539;47.982;12.238;2023-02-24T15:11:40;12.43;;;6.80;;
6997;SDS011;3539;47.982;12.238;2023-02-24T15:14:13;10.50;;;7.43;;
6997;SDS011;3539;47.982;12.238;2023-02-24T15:16:45;11.17;;;7.33;;
6997;SDS011;3539;47.982;12.238;2023-02-24T15:19:20;12.43;;;7.23;;